sim
Sign-in with your pilot id or email,
or register
Callsign
Passwort

Schedule Details

Flight Number: RYR7068 (1)
Departure: Rome Ciampino Airport (LIRA) at 12:20
Arrival: Thessaloniki International Airport (LGTS) at 14:05
Route: Ryanair Passenger Schedule. Enter filed route here before submitting Pirep.

Weather Information
Getting current METAR information for LIRA 211450Z 26007KT 230V300 CAVOK 14/06 Q1026
Getting current METAR information for LGTS 211450Z 34007KT CAVOK 16/00 Q1022 NOSIG

Schedule Frequency

Route Map